sensor_id;sensor_type;location;lat;lon;timestamp;pressure;altitude;pressure_sealevel;temperature;humidity
80749;BME280;70145;53.746;9.970;2024-02-23T00:02:16;97565.88;;;8.41;50.34
80749;BME280;70145;53.746;9.970;2024-02-23T00:04:42;97551.69;;;8.26;50.06
80749;BME280;70145;53.746;9.970;2024-02-23T00:07:07;97569.72;;;8.17;48.86
80749;BME280;70145;53.746;9.970;2024-02-23T00:09:33;97550.00;;;8.04;48.52
80749;BME280;70145;53.746;9.970;2024-02-23T00:11:58;97563.78;;;8.01;48.59
80749;BME280;70145;53.746;9.970;2024-02-23T00:14:24;97545.75;;;7.95;48.06
80749;BME280;70145;53.746;9.970;2024-02-23T00:16:49;97564.66;;;7.87;48.01
80749;BME280;70145;53.746;9.970;2024-02-23T00:19:15;97592.72;;;7.91;48.35
80749;BME280;70145;53.746;9.970;2024-02-23T00:21:43;97573.06;;;7.84;48.38
80749;BME280;70145;53.746;9.970;2024-02-23T00:24:12;97584.63;;;7.84;48.63
80749;BME280;70145;53.746;9.970;2024-02-23T00:26:38;97590.78;;;7.85;48.73
80749;BME280;70145;53.746;9.970;2024-02-23T00:29:04;97601.69;;;7.83;49.21
80749;BME280;70145;53.746;9.970;2024-02-23T00:31:29;97609.53;;;7.85;48.37
80749;BME280;70145;53.746;9.970;2024-02-23T00:33:54;97595.91;;;7.80;48.85
80749;BME280;70145;53.746;9.970;2024-02-23T00:36:20;97599.56;;;7.78;49.30
80749;BME280;70145;53.746;9.970;2024-02-23T00:38:45;97626.75;;;7.76;49.52
80749;BME280;70145;53.746;9.970;2024-02-23T00:41:10;97653.94;;;7.73;50.43
80749;BME280;70145;53.746;9.970;2024-02-23T00:43:39;97683.22;;;7.59;51.64
80749;BME280;70145;53.746;9.970;2024-02-23T00:46:05;97682.66;;;7.49;53.37
80749;BME280;70145;53.746;9.970;2024-02-23T00:48:30;97700.78;;;7.25;54.67
80749;BME280;70145;53.746;9.970;2024-02-23T00:50:56;97684.63;;;7.18;54.71
80749;BME280;70145;53.746;9.970;2024-02-23T00:53:21;97702.59;;;7.10;54.87
80749;BME280;70145;53.746;9.970;2024-02-23T00:55:47;97707.53;;;6.98;54.61
80749;BME280;70145;53.746;9.970;2024-02-23T00:58:12;97723.28;;;6.93;54.48
80749;BME280;70145;53.746;9.970;2024-02-23T01:00:38;97720.78;;;6.92;54.77
80749;BME280;70145;53.746;9.970;2024-02-23T01:03:03;97724.97;;;6.94;54.46
80749;BME280;70145;53.746;9.970;2024-02-23T01:05:28;97737.09;;;6.82;54.91
80749;BME280;70145;53.746;9.970;2024-02-23T01:07:54;97735.13;;;6.76;55.24
80749;BME280;70145;53.746;9.970;2024-02-23T01:10:19;97740.53;;;6.68;55.04
80749;BME280;70145;53.746;9.970;2024-02-23T01:12:44;97749.72;;;6.66;55.14
80749;BME280;70145;53.746;9.970;2024-02-23T01:15:10;97746.44;;;6.56;54.77
80749;BME280;70145;53.746;9.970;2024-02-23T01:17:35;97761.88;;;6.46;54.77
80749;BME280;70145;53.746;9.970;2024-02-23T01:20:00;97786.81;;;6.38;54.72
80749;BME280;70145;53.746;9.970;2024-02-23T01:22:26;97785.84;;;6.31;54.23
80749;BME280;70145;53.746;9.970;2024-02-23T01:24:51;97800.22;;;6.30;54.39
80749;BME280;70145;53.746;9.970;2024-02-23T01:27:16;97812.78;;;6.22;53.62
80749;BME280;70145;53.746;9.970;2024-02-23T01:29:42;97819.97;;;6.21;53.50
80749;BME280;70145;53.746;9.970;2024-02-23T01:32:07;97835.00;;;6.14;53.33
80749;BME280;70145;53.746;9.970;2024-02-23T01:34:32;97847.88;;;6.11;53.26
80749;BME280;70145;53.746;9.970;2024-02-23T01:36:59;97846.34;;;6.16;53.22
80749;BME280;70145;53.746;9.970;2024-02-23T01:39:24;97878.25;;;6.26;53.13
80749;BME280;70145;53.746;9.970;2024-02-23T01:41:49;97874.72;;;6.25;53.18
80749;BME280;70145;53.746;9.970;2024-02-23T01:44:15;97865.44;;;6.13;52.96
80749;BME280;70145;53.746;9.970;2024-02-23T01:46:42;97882.13;;;6.07;53.25
80749;BME280;70145;53.746;9.970;2024-02-23T01:49:07;97891.81;;;6.08;53.23
80749;BME280;70145;53.746;9.970;2024-02-23T01:51:33;97911.53;;;6.07;53.52
80749;BME280;70145;53.746;9.970;2024-02-23T01:53:59;97919.53;;;6.07;53.26
80749;BME280;70145;53.746;9.970;2024-02-23T01:56:25;97942.06;;;5.89;52.74
80749;BME280;70145;53.746;9.970;2024-02-23T01:58:51;97951.59;;;5.83;52.35
80749;BME280;70145;53.746;9.970;2024-02-23T02:01:17;97966.78;;;5.75;52.97
80749;BME280;70145;53.746;9.970;2024-02-23T02:03:42;97971.97;;;5.68;52.46
80749;BME280;70145;53.746;9.970;2024-02-23T02:06:09;97980.31;;;5.73;52.78
80749;BME280;70145;53.746;9.970;2024-02-23T02:08:35;97994.81;;;5.71;53.04
80749;BME280;70145;53.746;9.970;2024-02-23T02:11:01;97999.31;;;5.70;53.03
80749;BME280;70145;53.746;9.970;2024-02-23T02:13:29;98014.19;;;5.65;53.34
80749;BME280;70145;53.746;9.970;2024-02-23T02:15:55;98040.91;;;5.73;53.23
80749;BME280;70145;53.746;9.970;2024-02-23T02:18:20;98028.63;;;5.54;53.26
80749;BME280;70145;53.746;9.970;2024-02-23T02:20:55;98040.31;;;5.53;52.45
80749;BME280;70145;53.746;9.970;2024-02-23T02:23:20;98037.31;;;5.56;53.09
80749;BME280;70145;53.746;9.970;2024-02-23T02:25:55;98057.06;;;5.63;52.96
80749;BME280;70145;53.746;9.970;2024-02-23T02:28:22;98054.63;;;5.44;52.88
80749;BME280;70145;53.746;9.970;2024-02-23T02:30:48;98048.63;;;5.42;53.23
80749;BME280;70145;53.746;9.970;2024-02-23T02:33:14;98074.00;;;5.46;53.20
80749;BME280;70145;53.746;9.970;2024-02-23T02:35:39;98082.47;;;5.33;54.27
80749;BME280;70145;53.746;9.970;2024-02-23T02:38:04;98095.31;;;5.38;54.19
80749;BME280;70145;53.746;9.970;2024-02-23T02:40:30;98097.97;;;5.38;53.96
80749;BME280;70145;53.746;9.970;2024-02-23T02:42:57;98100.16;;;5.34;54.72
80749;BME280;70145;53.746;9.970;2024-02-23T02:45:22;98116.72;;;5.12;54.83
80749;BME280;70145;53.746;9.970;2024-02-23T02:47:48;98104.06;;;5.14;55.10
80749;BME280;70145;53.746;9.970;2024-02-23T02:50:13;98104.53;;;5.10;54.33
80749;BME280;70145;53.746;9.970;2024-02-23T02:52:38;98120.31;;;5.03;54.89
80749;BME280;70145;53.746;9.970;2024-02-23T02:55:04;98134.03;;;5.08;54.50
80749;BME280;70145;53.746;9.970;2024-02-23T02:57:29;98131.47;;;4.99;54.36
80749;BME280;70145;53.746;9.970;2024-02-23T02:59:55;98131.69;;;5.05;54.80
80749;BME280;70145;53.746;9.970;2024-02-23T03:02:20;98144.44;;;4.94;54.54
80749;BME280;70145;53.746;9.970;2024-02-23T03:04:49;98136.47;;;5.02;54.44
80749;BME280;70145;53.746;9.970;2024-02-23T03:07:15;98142.78;;;4.93;54.52
80749;BME280;70145;53.746;9.970;2024-02-23T03:09:41;98159.28;;;4.96;54.25
80749;BME280;70145;53.746;9.970;2024-02-23T03:12:06;98175.75;;;4.92;54.85
80749;BME280;70145;53.746;9.970;2024-02-23T03:14:32;98180.94;;;4.93;54.71
80749;BME280;70145;53.746;9.970;2024-02-23T03:16:59;98183.75;;;4.92;55.32
80749;BME280;70145;53.746;9.970;2024-02-23T03:19:24;98194.28;;;4.93;55.05
80749;BME280;70145;53.746;9.970;2024-02-23T03:21:51;98201.75;;;4.90;55.56
80749;BME280;70145;53.746;9.970;2024-02-23T03:24:16;98208.69;;;4.83;55.79
80749;BME280;70145;53.746;9.970;2024-02-23T03:26:41;98221.50;;;4.79;55.04
80749;BME280;70145;53.746;9.970;2024-02-23T03:29:07;98219.41;;;4.65;55.81
80749;BME280;70145;53.746;9.970;2024-02-23T03:31:32;98226.53;;;4.65;56.16
80749;BME280;70145;53.746;9.970;2024-02-23T03:33:57;98239.31;;;4.61;55.94
80749;BME280;70145;53.746;9.970;2024-02-23T03:36:23;98238.13;;;4.56;55.76
80749;BME280;70145;53.746;9.970;2024-02-23T03:38:48;98236.00;;;4.59;56.37
80749;BME280;70145;53.746;9.970;2024-02-23T03:41:14;98235.69;;;4.45;56.42
80749;BME280;70145;53.746;9.970;2024-02-23T03:43:39;98240.16;;;4.44;55.98
80749;BME280;70145;53.746;9.970;2024-02-23T03:46:05;98242.75;;;4.36;56.28
80749;BME280;70145;53.746;9.970;2024-02-23T03:48:31;98241.84;;;4.45;55.73
80749;BME280;70145;53.746;9.970;2024-02-23T03:50:57;98252.94;;;4.41;55.88
80749;BME280;70145;53.746;9.970;2024-02-23T03:53:22;98258.59;;;4.38;56.18
80749;BME280;70145;53.746;9.970;2024-02-23T03:55:48;98262.81;;;4.31;56.08
80749;BME280;70145;53.746;9.970;2024-02-23T03:58:13;98261.22;;;4.20;56.28
80749;BME280;70145;53.746;9.970;2024-02-23T04:00:38;98270.81;;;4.31;56.09
80749;BME280;70145;53.746;9.970;2024-02-23T04:03:04;98270.66;;;4.32;56.37
80749;BME280;70145;53.746;9.970;2024-02-23T04:05:29;98287.50;;;4.33;55.88
80749;BME280;70145;53.746;9.970;2024-02-23T04:07:54;98290.88;;;4.35;55.85
80749;BME280;70145;53.746;9.970;2024-02-23T04:10:20;98297.75;;;4.28;56.49
80749;BME280;70145;53.746;9.970;2024-02-23T04:12:48;98305.38;;;4.23;55.83
80749;BME280;70145;53.746;9.970;2024-02-23T04:15:13;98303.16;;;4.18;56.03
80749;BME280;70145;53.746;9.970;2024-02-23T04:17:39;98331.09;;;4.14;55.88
80749;BME280;70145;53.746;9.970;2024-02-23T04:20:08;98329.00;;;4.08;55.50
80749;BME280;70145;53.746;9.970;2024-02-23T04:22:37;98335.44;;;4.06;55.76
80749;BME280;70145;53.746;9.970;2024-02-23T04:25:03;98351.41;;;4.06;56.10
80749;BME280;70145;53.746;9.970;2024-02-23T04:27:30;98345.84;;;4.09;55.31
80749;BME280;70145;53.746;9.970;2024-02-23T04:29:55;98354.94;;;4.06;55.57
80749;BME280;70145;53.746;9.970;2024-02-23T04:32:21;98351.56;;;4.04;55.88
80749;BME280;70145;53.746;9.970;2024-02-23T04:34:46;98348.06;;;4.04;56.45
80749;BME280;70145;53.746;9.970;2024-02-23T04:37:11;98351.84;;;4.01;55.83
80749;BME280;70145;53.746;9.970;2024-02-23T04:39:36;98354.25;;;3.95;56.10
80749;BME280;70145;53.746;9.970;2024-02-23T04:42:03;98354.25;;;3.95;56.44
80749;BME280;70145;53.746;9.970;2024-02-23T04:44:29;98375.84;;;3.92;56.58
80749;BME280;70145;53.746;9.970;2024-02-23T04:46:54;98367.47;;;3.87;56.34
80749;BME280;70145;53.746;9.970;2024-02-23T04:49:20;98376.84;;;3.91;56.18
80749;BME280;70145;53.746;9.970;2024-02-23T04:51:45;98371.50;;;3.91;56.21
80749;BME280;70145;53.746;9.970;2024-02-23T04:54:10;98373.78;;;3.86;56.34
80749;BME280;70145;53.746;9.970;2024-02-23T04:56:36;98364.81;;;3.77;56.79
80749;BME280;70145;53.746;9.970;2024-02-23T04:59:01;98392.00;;;3.81;56.47
80749;BME280;70145;53.746;9.970;2024-02-23T05:01:26;98394.66;;;3.81;56.90
80749;BME280;70145;53.746;9.970;2024-02-23T05:03:52;98393.25;;;3.86;56.17
80749;BME280;70145;53.746;9.970;2024-02-23T05:06:17;98397.56;;;3.87;56.24
80749;BME280;70145;53.746;9.970;2024-02-23T05:08:42;98406.56;;;3.86;56.02
80749;BME280;70145;53.746;9.970;2024-02-23T05:11:08;98416.22;;;3.87;56.73
80749;BME280;70145;53.746;9.970;2024-02-23T05:13:33;98421.25;;;3.90;55.50
80749;BME280;70145;53.746;9.970;2024-02-23T05:15:58;98422.38;;;3.88;56.67
80749;BME280;70145;53.746;9.970;2024-02-23T05:18:24;98427.31;;;3.83;56.04
80749;BME280;70145;53.746;9.970;2024-02-23T05:20:49;98444.97;;;3.84;55.86
80749;BME280;70145;53.746;9.970;2024-02-23T05:23:14;98443.00;;;3.86;56.32
80749;BME280;70145;53.746;9.970;2024-02-23T05:25:43;98445.50;;;3.87;56.25
80749;BME280;70145;53.746;9.970;2024-02-23T05:28:08;98436.97;;;3.84;56.00
80749;BME280;70145;53.746;9.970;2024-02-23T05:30:33;98460.22;;;3.82;57.06
80749;BME280;70145;53.746;9.970;2024-02-23T05:32:59;98457.19;;;3.77;56.18
80749;BME280;70145;53.746;9.970;2024-02-23T05:35:25;98459.28;;;3.83;56.53
80749;BME280;70145;53.746;9.970;2024-02-23T05:37:51;98469.63;;;3.86;56.67
80749;BME280;70145;53.746;9.970;2024-02-23T05:40:16;98454.50;;;3.77;56.80
80749;BME280;70145;53.746;9.970;2024-02-23T05:42:42;98449.59;;;3.72;56.69
80749;BME280;70145;53.746;9.970;2024-02-23T05:45:08;98463.47;;;3.76;56.24
80749;BME280;70145;53.746;9.970;2024-02-23T05:47:36;98468.66;;;3.68;56.98
80749;BME280;70145;53.746;9.970;2024-02-23T05:50:03;98477.75;;;3.75;56.17
80749;BME280;70145;53.746;9.970;2024-02-23T05:52:31;98485.03;;;3.73;56.66
80749;BME280;70145;53.746;9.970;2024-02-23T05:54:56;98478.91;;;3.72;56.54
80749;BME280;70145;53.746;9.970;2024-02-23T05:57:21;98477.47;;;3.78;55.74
80749;BME280;70145;53.746;9.970;2024-02-23T05:59:47;98485.88;;;3.73;55.74
80749;BME280;70145;53.746;9.970;2024-02-23T06:02:12;98500.19;;;3.72;55.62
80749;BME280;70145;53.746;9.970;2024-02-23T06:04:40;98502.44;;;3.77;56.49
80749;BME280;70145;53.746;9.970;2024-02-23T06:07:05;98491.78;;;3.77;56.10
80749;BME280;70145;53.746;9.970;2024-02-23T06:09:30;98519.66;;;3.73;56.05
80749;BME280;70145;53.746;9.970;2024-02-23T06:11:56;98520.63;;;3.72;55.63
80749;BME280;70145;53.746;9.970;2024-02-23T06:14:21;98527.94;;;3.70;56.30
80749;BME280;70145;53.746;9.970;2024-02-23T06:16:48;98526.25;;;3.69;56.07
80749;BME280;70145;53.746;9.970;2024-02-23T06:19:14;98538.00;;;3.66;55.81
80749;BME280;70145;53.746;9.970;2024-02-23T06:21:39;98553.13;;;3.66;56.02
80749;BME280;70145;53.746;9.970;2024-02-23T06:24:04;98549.50;;;3.67;55.99
80749;BME280;70145;53.746;9.970;2024-02-23T06:26:30;98555.53;;;3.69;55.41
80749;BME280;70145;53.746;9.970;2024-02-23T06:28:55;98555.38;;;3.70;56.23
80749;BME280;70145;53.746;9.970;2024-02-23T06:31:21;98559.31;;;3.57;55.47
80749;BME280;70145;53.746;9.970;2024-02-23T06:33:46;98573.59;;;3.65;56.23
80749;BME280;70145;53.746;9.970;2024-02-23T06:36:14;98581.59;;;3.65;55.39
80749;BME280;70145;53.746;9.970;2024-02-23T06:38:39;98589.03;;;3.71;55.23
80749;BME280;70145;53.746;9.970;2024-02-23T06:41:05;98580.03;;;3.63;55.51
80749;BME280;70145;53.746;9.970;2024-02-23T06:43:30;98612.25;;;3.60;54.92
80749;BME280;70145;53.746;9.970;2024-02-23T06:45:56;98611.41;;;3.59;55.26
80749;BME280;70145;53.746;9.970;2024-02-23T06:48:22;98611.56;;;3.58;55.57
80749;BME280;70145;53.746;9.970;2024-02-23T06:50:49;98611.09;;;3.53;55.75
80749;BME280;70145;53.746;9.970;2024-02-23T06:53:14;98623.47;;;3.54;55.05
80749;BME280;70145;53.746;9.970;2024-02-23T06:55:39;98625.00;;;3.56;55.05
80749;BME280;70145;53.746;9.970;2024-02-23T06:58:04;98639.97;;;3.57;55.63
80749;BME280;70145;53.746;9.970;2024-02-23T07:00:32;98636.78;;;3.54;55.97
80749;BME280;70145;53.746;9.970;2024-02-23T07:02:57;98642.50;;;3.59;55.38
80749;BME280;70145;53.746;9.970;2024-02-23T07:05:28;98637.44;;;3.56;55.58
80749;BME280;70145;53.746;9.970;2024-02-23T07:07:54;98651.75;;;3.55;55.95
80749;BME280;70145;53.746;9.970;2024-02-23T07:10:19;98656.25;;;3.64;55.38
80749;BME280;70145;53.746;9.970;2024-02-23T07:12:45;98657.50;;;3.60;55.52
80749;BME280;70145;53.746;9.970;2024-02-23T07:15:11;98676.13;;;3.60;55.67
80749;BME280;70145;53.746;9.970;2024-02-23T07:17:36;98673.47;;;3.60;55.28
80749;BME280;70145;53.746;9.970;2024-02-23T07:20:01;98676.97;;;3.60;55.10
80749;BME280;70145;53.746;9.970;2024-02-23T07:22:34;98673.91;;;3.65;55.85
80749;BME280;70145;53.746;9.970;2024-02-23T07:24:59;98679.50;;;3.62;55.85
80749;BME280;70145;53.746;9.970;2024-02-23T07:27:26;98676.13;;;3.60;55.83
80749;BME280;70145;53.746;9.970;2024-02-23T07:29:51;98686.22;;;3.66;55.52
80749;BME280;70145;53.746;9.970;2024-02-23T07:32:17;98694.94;;;3.68;56.14
80749;BME280;70145;53.746;9.970;2024-02-23T07:34:42;98690.19;;;3.71;55.82
80749;BME280;70145;53.746;9.970;2024-02-23T07:37:07;98691.88;;;3.72;56.14
80749;BME280;70145;53.746;9.970;2024-02-23T07:39:33;98702.19;;;3.66;55.79
80749;BME280;70145;53.746;9.970;2024-02-23T07:41:58;98702.94;;;3.68;55.70
80749;BME280;70145;53.746;9.970;2024-02-23T07:44:23;98702.66;;;3.71;55.95
80749;BME280;70145;53.746;9.970;2024-02-23T07:46:50;98708.97;;;3.70;55.67
80749;BME280;70145;53.746;9.970;2024-02-23T07:49:17;98707.72;;;3.74;56.34
80749;BME280;70145;53.746;9.970;2024-02-23T07:51:42;98716.25;;;3.77;55.76
80749;BME280;70145;53.746;9.970;2024-02-23T07:54:08;98716.66;;;3.73;55.71
80749;BME280;70145;53.746;9.970;2024-02-23T07:56:33;98721.03;;;3.74;56.08
80749;BME280;70145;53.746;9.970;2024-02-23T07:58:58;98724.66;;;3.73;55.61
80749;BME280;70145;53.746;9.970;2024-02-23T08:01:24;98731.69;;;3.74;56.52
80749;BME280;70145;53.746;9.970;2024-02-23T08:03:49;98735.28;;;3.73;55.98
80749;BME280;70145;53.746;9.970;2024-02-23T08:06:14;98741.47;;;3.73;56.02
80749;BME280;70145;53.746;9.970;2024-02-23T08:08:40;98742.75;;;3.79;56.16
80749;BME280;70145;53.746;9.970;2024-02-23T08:11:05;98746.66;;;3.75;56.41
80749;BME280;70145;53.746;9.970;2024-02-23T08:13:30;98739.81;;;3.82;56.60
80749;BME280;70145;53.746;9.970;2024-02-23T08:15:57;98744.31;;;3.81;56.76
80749;BME280;70145;53.746;9.970;2024-02-23T08:18:22;98745.13;;;3.82;55.75
80749;BME280;70145;53.746;9.970;2024-02-23T08:20:48;98752.31;;;3.81;56.70
80749;BME280;70145;53.746;9.970;2024-02-23T08:23:13;98749.06;;;3.78;56.53
80749;BME280;70145;53.746;9.970;2024-02-23T08:25:39;98750.47;;;3.82;56.27
80749;BME280;70145;53.746;9.970;2024-02-23T08:28:04;98757.91;;;3.88;56.80
80749;BME280;70145;53.746;9.970;2024-02-23T08:30:29;98762.56;;;3.95;56.49
80749;BME280;70145;53.746;9.970;2024-02-23T08:32:55;98770.97;;;3.91;56.82
80749;BME280;70145;53.746;9.970;2024-02-23T08:35:20;98754.19;;;4.00;56.35
80749;BME280;70145;53.746;9.970;2024-02-23T08:37:46;98759.50;;;4.00;56.87
80749;BME280;70145;53.746;9.970;2024-02-23T08:40:11;98773.84;;;4.08;56.43
80749;BME280;70145;53.746;9.970;2024-02-23T08:42:37;98778.06;;;4.11;56.87
80749;BME280;70145;53.746;9.970;2024-02-23T08:45:03;98771.63;;;4.13;56.17
80749;BME280;70145;53.746;9.970;2024-02-23T08:47:29;98775.56;;;4.19;56.23
80749;BME280;70145;53.746;9.970;2024-02-23T08:49:58;98780.91;;;4.28;55.92
80749;BME280;70145;53.746;9.970;2024-02-23T08:52:24;98773.91;;;4.27;55.68
80749;BME280;70145;53.746;9.970;2024-02-23T08:54:51;98781.22;;;4.35;55.46
80749;BME280;70145;53.746;9.970;2024-02-23T08:57:16;98795.22;;;4.37;55.12
80749;BME280;70145;53.746;9.970;2024-02-23T08:59:47;98812.63;;;4.41;55.30
80749;BME280;70145;53.746;9.970;2024-02-23T09:02:12;98807.28;;;4.41;54.38
80749;BME280;70145;53.746;9.970;2024-02-23T09:04:38;98798.75;;;4.47;53.97
80749;BME280;70145;53.746;9.970;2024-02-23T09:07:03;98807.59;;;4.47;53.62
80749;BME280;70145;53.746;9.970;2024-02-23T09:09:28;98818.72;;;4.52;53.83
80749;BME280;70145;53.746;9.970;2024-02-23T09:11:55;98809.88;;;4.52;54.02
80749;BME280;70145;53.746;9.970;2024-02-23T09:14:20;98826.28;;;4.57;53.49
80749;BME280;70145;53.746;9.970;2024-02-23T09:16:45;98817.03;;;4.61;53.57
80749;BME280;70145;53.746;9.970;2024-02-23T09:19:16;98812.13;;;4.56;52.97
80749;BME280;70145;53.746;9.970;2024-02-23T09:21:42;98822.66;;;4.58;53.55
80749;BME280;70145;53.746;9.970;2024-02-23T09:24:07;98834.00;;;4.60;53.53
80749;BME280;70145;53.746;9.970;2024-02-23T09:26:33;98835.69;;;4.61;53.54
80749;BME280;70145;53.746;9.970;2024-02-23T09:28:58;98838.09;;;4.64;53.16
80749;BME280;70145;53.746;9.970;2024-02-23T09:31:23;98840.63;;;4.65;53.16
80749;BME280;70145;53.746;9.970;2024-02-23T09:33:48;98840.75;;;4.64;53.46
80749;BME280;70145;53.746;9.970;2024-02-23T09:36:16;98844.69;;;4.69;52.72
80749;BME280;70145;53.746;9.970;2024-02-23T09:38:41;98848.63;;;4.75;53.26
80749;BME280;70145;53.746;9.970;2024-02-23T09:41:18;98848.34;;;4.78;52.89
80749;BME280;70145;53.746;9.970;2024-02-23T09:43:46;98850.03;;;4.79;53.24
80749;BME280;70145;53.746;9.970;2024-02-23T09:46:12;98856.22;;;4.79;52.76
80749;BME280;70145;53.746;9.970;2024-02-23T09:48:39;98862.09;;;4.83;53.11
80749;BME280;70145;53.746;9.970;2024-02-23T09:51:05;98868.88;;;4.87;52.79
80749;BME280;70145;53.746;9.970;2024-02-23T09:53:33;98879.25;;;4.90;53.37
80749;BME280;70145;53.746;9.970;2024-02-23T09:55:59;98880.06;;;4.90;52.58
80749;BME280;70145;53.746;9.970;2024-02-23T09:58:26;98881.34;;;4.96;52.54
80749;BME280;70145;53.746;9.970;2024-02-23T10:00:55;98883.72;;;4.99;52.35
80749;BME280;70145;53.746;9.970;2024-02-23T10:03:24;98883.59;;;5.00;52.42
80749;BME280;70145;53.746;9.970;2024-02-23T10:05:51;98890.19;;;4.96;52.36
80749;BME280;70145;53.746;9.970;2024-02-23T10:08:16;98894.28;;;5.00;52.02
80749;BME280;70145;53.746;9.970;2024-02-23T10:10:41;98905.66;;;5.02;52.27
80749;BME280;70145;53.746;9.970;2024-02-23T10:13:06;98911.56;;;5.06;52.49
80749;BME280;70145;53.746;9.970;2024-02-23T10:15:33;98933.91;;;5.14;52.77
80749;BME280;70145;53.746;9.970;2024-02-23T10:17:58;98938.66;;;5.11;51.93
80749;BME280;70145;53.746;9.970;2024-02-23T10:20:24;98936.44;;;5.16;52.35
80749;BME280;70145;53.746;9.970;2024-02-23T10:22:49;98939.38;;;5.22;52.23
80749;BME280;70145;53.746;9.970;2024-02-23T10:25:15;98942.19;;;5.21;51.80
80749;BME280;70145;53.746;9.970;2024-02-23T10:27:41;98945.16;;;5.27;52.16
80749;BME280;70145;53.746;9.970;2024-02-23T10:30:08;98951.75;;;5.33;51.96
80749;BME280;70145;53.746;9.970;2024-02-23T10:32:38;98962.84;;;5.38;51.71
80749;BME280;70145;53.746;9.970;2024-02-23T10:35:16;98964.41;;;5.40;51.99
80749;BME280;70145;53.746;9.970;2024-02-23T10:37:42;98965.94;;;5.43;50.65
80749;BME280;70145;53.746;9.970;2024-02-23T10:40:11;98969.34;;;5.45;50.94
80749;BME280;70145;53.746;9.970;2024-02-23T10:42:38;98973.81;;;5.44;51.42
80749;BME280;70145;53.746;9.970;2024-02-23T10:45:05;98967.34;;;5.47;51.02
80749;BME280;70145;53.746;9.970;2024-02-23T10:47:30;98970.59;;;5.50;51.04
80749;BME280;70145;53.746;9.970;2024-02-23T10:49:56;98968.59;;;5.52;51.26
80749;BME280;70145;53.746;9.970;2024-02-23T10:52:26;98975.91;;;5.60;51.41
80749;BME280;70145;53.746;9.970;2024-02-23T10:54:52;98974.41;;;5.67;51.65
80749;BME280;70145;53.746;9.970;2024-02-23T10:57:18;98972.44;;;5.69;52.02
80749;BME280;70145;53.746;9.970;2024-02-23T10:59:47;98976.50;;;5.73;51.72
80749;BME280;70145;53.746;9.970;2024-02-23T11:02:15;98980.72;;;5.76;50.95
80749;BME280;70145;53.746;9.970;2024-02-23T11:04:46;98996.19;;;5.82;50.56
80749;BME280;70145;53.746;9.970;2024-02-23T11:07:15;98987.06;;;5.84;51.02
80749;BME280;70145;53.746;9.970;2024-02-23T11:09:41;98998.72;;;5.83;50.70
80749;BME280;70145;53.746;9.970;2024-02-23T11:12:06;98998.16;;;5.89;50.86
80749;BME280;70145;53.746;9.970;2024-02-23T11:14:36;98998.16;;;5.89;50.72
80749;BME280;70145;53.746;9.970;2024-02-23T11:17:03;98994.50;;;5.90;50.45
80749;BME280;70145;53.746;9.970;2024-02-23T11:19:36;98991.69;;;5.92;50.55
80749;BME280;70145;53.746;9.970;2024-02-23T11:22:02;98988.56;;;5.96;50.28
80749;BME280;70145;53.746;9.970;2024-02-23T11:24:31;98989.84;;;5.92;49.73
80749;BME280;70145;53.746;9.970;2024-02-23T11:26:58;98987.47;;;5.99;50.57
80749;BME280;70145;53.746;9.970;2024-02-23T11:29:27;98991.81;;;6.00;50.42
80749;BME280;70145;53.746;9.970;2024-02-23T11:31:54;98988.88;;;6.03;50.23
80749;BME280;70145;53.746;9.970;2024-02-23T11:34:26;98990.41;;;6.05;50.23
80749;BME280;70145;53.746;9.970;2024-02-23T11:36:51;98987.88;;;6.04;50.05
80749;BME280;70145;53.746;9.970;2024-02-23T11:39:19;98975.06;;;6.07;49.88
80749;BME280;70145;53.746;9.970;2024-02-23T11:41:44;98982.53;;;6.04;49.69
80749;BME280;70145;53.746;9.970;2024-02-23T11:44:12;98988.44;;;6.07;49.64
80749;BME280;70145;53.746;9.970;2024-02-23T11:46:38;98984.06;;;6.06;49.65
80749;BME280;70145;53.746;9.970;2024-02-23T11:49:03;98989.56;;;6.14;49.63
80749;BME280;70145;53.746;9.970;2024-02-23T11:51:29;98991.09;;;6.17;49.74
80749;BME280;70145;53.746;9.970;2024-02-23T11:53:57;98988.56;;;6.25;49.82
80749;BME280;70145;53.746;9.970;2024-02-23T11:56:23;98983.34;;;6.23;49.36
80749;BME280;70145;53.746;9.970;2024-02-23T11:58:48;98979.69;;;6.24;48.92
80749;BME280;70145;53.746;9.970;2024-02-23T12:01:14;98975.31;;;6.23;48.67
80749;BME280;70145;53.746;9.970;2024-02-23T12:03:39;98964.34;;;6.26;49.05
80749;BME280;70145;53.746;9.970;2024-02-23T12:06:05;98976.72;;;6.27;49.22
80749;BME280;70145;53.746;9.970;2024-02-23T12:08:32;98992.59;;;6.29;48.75
80749;BME280;70145;53.746;9.970;2024-02-23T12:11:06;98984.31;;;6.32;48.94
80749;BME280;70145;53.746;9.970;2024-02-23T12:13:36;98964.88;;;6.30;48.63
80749;BME280;70145;53.746;9.970;2024-02-23T12:16:02;98968.25;;;6.32;48.79
80749;BME280;70145;53.746;9.970;2024-02-23T12:18:28;98965.16;;;6.36;49.08
80749;BME280;70145;53.746;9.970;2024-02-23T12:21:05;98966.69;;;6.39;48.40
80749;BME280;70145;53.746;9.970;2024-02-23T12:23:44;98966.84;;;6.37;48.35
80749;BME280;70145;53.746;9.970;2024-02-23T12:26:12;98965.69;;;6.40;47.29
80749;BME280;70145;53.746;9.970;2024-02-23T12:28:38;98970.31;;;6.47;47.88
80749;BME280;70145;53.746;9.970;2024-02-23T12:31:04;98974.94;;;6.45;48.07
80749;BME280;70145;53.746;9.970;2024-02-23T12:33:34;98983.97;;;6.54;47.68
80749;BME280;70145;53.746;9.970;2024-02-23T12:36:00;98981.72;;;6.49;47.53
80749;BME280;70145;53.746;9.970;2024-02-23T12:38:26;98993.22;;;6.50;47.17
80749;BME280;70145;53.746;9.970;2024-02-23T12:40:51;98993.22;;;6.50;46.65
80749;BME280;70145;53.746;9.970;2024-02-23T12:43:17;98995.91;;;6.50;47.35
80749;BME280;70145;53.746;9.970;2024-02-23T12:45:43;98988.75;;;6.50;47.01
80749;BME280;70145;53.746;9.970;2024-02-23T12:48:14;98991.47;;;6.41;46.17
80749;BME280;70145;53.746;9.970;2024-02-23T12:50:39;98989.19;;;6.46;46.60
80749;BME280;70145;53.746;9.970;2024-02-23T12:53:04;98982.97;;;6.55;47.32
80749;BME280;70145;53.746;9.970;2024-02-23T12:55:30;98989.31;;;6.54;46.69
80749;BME280;70145;53.746;9.970;2024-02-23T12:57:55;98984.50;;;6.57;47.11
80749;BME280;70145;53.746;9.970;2024-02-23T13:00:20;98981.97;;;6.56;46.27
80749;BME280;70145;53.746;9.970;2024-02-23T13:02:46;98992.94;;;6.62;46.21
80749;BME280;70145;53.746;9.970;2024-02-23T13:05:11;98996.72;;;6.60;46.60